| time (UTC) | temp C | wind direction | speed KPH | gust KPH | rain 1hr cm | rain 24hr cm | rain mn cm | humidity % | barometer mb |
| 20260902141001 | 22 | 280 | 19.3 | 0.0 | 0.00 | 0.00 | 0.00 | 30 | 1018.0 |
| 20260902131002 | 21 | 270 | 14.5 | 0.0 | 0.00 | 0.00 | 0.00 | 40 | 1019.0 |
| 20260902121002 | 20 | 250 | 12.9 | 0.0 | 0.00 | 0.00 | 0.00 | 40 | 1019.0 |
| 20260902111002 | 20 | 250 | 17.7 | 0.0 | 0.00 | 0.00 | 0.00 | 45 | 1019.0 |
| 20260902081002 | 16 | 200 | 4.8 | 0.0 | 0.00 | 0.00 | 0.00 | 80 | 1019.0 |
| 20260902061002 | 12 | 130 | 1.6 | 0.0 | 0.00 | 0.00 | 0.00 | 95 | 1019.0 |
| 20260902051002 | 11 | 70 | 3.2 | 0.0 | 0.00 | 0.00 | 0.00 | 95 | 1019.0 |
| 20260902041002 | 10 | 0 | 0.0 | 0.0 | 0.00 | 0.00 | 0.00 | 95 | 1019.0 |
| 20260902031001 | 10 | 0 | 0.0 | 0.0 | 0.00 | 0.00 | 0.00 | 95 | 1020.0 |
| 20260902021002 | 10 | 0 | 0.0 | 0.0 | 0.00 | 0.00 | 0.00 | 95 | 1020.0 |
| 20260902011002 | 10 | 0 | 0.0 | 0.0 | 0.00 | 0.00 | 0.00 | 10 | 1019.0 |
| 20260902001002 | 11 | 230 | 3.2 | 0.0 | 0.00 | 0.00 | 0.00 | 10 | 1020.0 |
| 20260901231002 | 12 | 0 | 0.0 | 0.0 | 0.00 | 0.00 | 0.00 | 95 | 1020.0 |
| 20260901211002 | 15 | 250 | 8.0 | 0.0 | 0.00 | 0.00 | 0.00 | 90 | 1020.0 |
| 20260901201002 | 15 | 240 | 11.3 | 0.0 | 0.00 | 0.00 | 0.00 | 85 | 1020.0 |
| 20260901191003 | 16 | 240 | 9.7 | 0.0 | 0.00 | 0.00 | 0.00 | 85 | 1019.0 |
| 20260901181002 | 18 | 250 | 8.0 | 0.0 | 0.00 | 0.00 | 0.00 | 70 | 1018.0 |
| 20260901171002 | 20 | 250 | 11.3 | 0.0 | 0.00 | 0.00 | 0.00 | 65 | 1018.0 |
| 20260901161002 | 20 | 260 | 11.3 | 0.0 | 0.00 | 0.00 | 0.00 | 70 | 1018.0 |
| 20260901151003 | 20 | 250 | 12.9 | 0.0 | 0.00 | 0.00 | 0.00 | 75 | 1018.0 |